sensor_id;sensor_type;location;lat;lon;timestamp;P1;durP1;ratioP1;P2;durP2;ratioP2
19257;SDS011;9763;48.780;9.212;2023-12-28T00:02:18;1.97;;;1.10;;
19257;SDS011;9763;48.780;9.212;2023-12-28T00:05:44;1.60;;;1.40;;
19257;SDS011;9763;48.780;9.212;2023-12-28T00:09:08;2.50;;;1.67;;
19257;SDS011;9763;48.780;9.212;2023-12-28T00:12:34;2.33;;;2.00;;
19257;SDS011;9763;48.780;9.212;2023-12-28T00:15:57;2.77;;;2.07;;
19257;SDS011;9763;48.780;9.212;2023-12-28T00:19:21;2.90;;;1.70;;
19257;SDS011;9763;48.780;9.212;2023-12-28T00:22:47;2.27;;;1.60;;
19257;SDS011;9763;48.780;9.212;2023-12-28T00:26:11;1.90;;;1.40;;
19257;SDS011;9763;48.780;9.212;2023-12-28T00:29:35;1.73;;;1.40;;
19257;SDS011;9763;48.780;9.212;2023-12-28T00:33:00;2.30;;;1.57;;
19257;SDS011;9763;48.780;9.212;2023-12-28T00:36:24;2.30;;;1.50;;
19257;SDS011;9763;48.780;9.212;2023-12-28T00:39:50;2.07;;;1.40;;
19257;SDS011;9763;48.780;9.212;2023-12-28T00:43:13;1.80;;;1.70;;
19257;SDS011;9763;48.780;9.212;2023-12-28T00:46:37;2.77;;;1.80;;
19257;SDS011;9763;48.780;9.212;2023-12-28T00:50:02;1.90;;;1.43;;
19257;SDS011;9763;48.780;9.212;2023-12-28T00:53:27;2.53;;;1.70;;
19257;SDS011;9763;48.780;9.212;2023-12-28T00:56:52;2.43;;;1.80;;
19257;SDS011;9763;48.780;9.212;2023-12-28T01:00:17;1.63;;;1.30;;
19257;SDS011;9763;48.780;9.212;2023-12-28T01:03:41;1.50;;;1.20;;
19257;SDS011;9763;48.780;9.212;2023-12-28T01:07:05;1.70;;;1.30;;
19257;SDS011;9763;48.780;9.212;2023-12-28T01:10:29;1.33;;;1.03;;
19257;SDS011;9763;48.780;9.212;2023-12-28T01:13:54;2.20;;;1.33;;
19257;SDS011;9763;48.780;9.212;2023-12-28T01:17:19;2.00;;;1.40;;
19257;SDS011;9763;48.780;9.212;2023-12-28T01:20:44;1.30;;;1.10;;
19257;SDS011;9763;48.780;9.212;2023-12-28T01:24:08;1.40;;;1.13;;
19257;SDS011;9763;48.780;9.212;2023-12-28T01:27:32;1.50;;;1.33;;
19257;SDS011;9763;48.780;9.212;2023-12-28T01:30:58;1.80;;;1.40;;
19257;SDS011;9763;48.780;9.212;2023-12-28T01:34:22;2.10;;;1.27;;
19257;SDS011;9763;48.780;9.212;2023-12-28T01:37:46;2.17;;;1.53;;
19257;SDS011;9763;48.780;9.212;2023-12-28T01:41:10;1.70;;;1.07;;
19257;SDS011;9763;48.780;9.212;2023-12-28T01:44:35;1.70;;;1.20;;
19257;SDS011;9763;48.780;9.212;2023-12-28T01:48:00;1.20;;;0.90;;
19257;SDS011;9763;48.780;9.212;2023-12-28T01:51:25;1.67;;;1.13;;
19257;SDS011;9763;48.780;9.212;2023-12-28T01:54:50;1.30;;;1.00;;
19257;SDS011;9763;48.780;9.212;2023-12-28T01:58:15;1.57;;;1.20;;
19257;SDS011;9763;48.780;9.212;2023-12-28T02:01:40;1.70;;;1.10;;
19257;SDS011;9763;48.780;9.212;2023-12-28T02:05:06;1.50;;;1.03;;
19257;SDS011;9763;48.780;9.212;2023-12-28T02:08:31;1.60;;;1.10;;
19257;SDS011;9763;48.780;9.212;2023-12-28T02:11:56;1.50;;;1.10;;
19257;SDS011;9763;48.780;9.212;2023-12-28T02:15:19;1.50;;;1.10;;
19257;SDS011;9763;48.780;9.212;2023-12-28T02:18:44;1.50;;;1.17;;
19257;SDS011;9763;48.780;9.212;2023-12-28T02:22:14;1.63;;;1.20;;
19257;SDS011;9763;48.780;9.212;2023-12-28T02:25:40;1.80;;;1.30;;
19257;SDS011;9763;48.780;9.212;2023-12-28T02:29:04;1.80;;;1.03;;
19257;SDS011;9763;48.780;9.212;2023-12-28T02:32:32;1.70;;;1.10;;
19257;SDS011;9763;48.780;9.212;2023-12-28T02:36:09;1.47;;;1.00;;
19257;SDS011;9763;48.780;9.212;2023-12-28T02:39:36;1.50;;;1.17;;
19257;SDS011;9763;48.780;9.212;2023-12-28T02:43:03;1.50;;;1.10;;
19257;SDS011;9763;48.780;9.212;2023-12-28T02:46:27;1.33;;;1.03;;
19257;SDS011;9763;48.780;9.212;2023-12-28T02:49:51;1.87;;;1.03;;
19257;SDS011;9763;48.780;9.212;2023-12-28T02:53:17;1.80;;;1.10;;
19257;SDS011;9763;48.780;9.212;2023-12-28T02:56:41;1.60;;;1.20;;
19257;SDS011;9763;48.780;9.212;2023-12-28T03:00:08;1.40;;;1.03;;
19257;SDS011;9763;48.780;9.212;2023-12-28T03:03:33;1.20;;;0.90;;
19257;SDS011;9763;48.780;9.212;2023-12-28T03:06:57;1.60;;;1.13;;
19257;SDS011;9763;48.780;9.212;2023-12-28T03:10:21;2.30;;;1.13;;
19257;SDS011;9763;48.780;9.212;2023-12-28T03:13:45;1.30;;;1.00;;
19257;SDS011;9763;48.780;9.212;2023-12-28T03:17:11;1.40;;;1.00;;
19257;SDS011;9763;48.780;9.212;2023-12-28T03:20:35;1.47;;;1.10;;
19257;SDS011;9763;48.780;9.212;2023-12-28T03:24:01;1.30;;;1.00;;
19257;SDS011;9763;48.780;9.212;2023-12-28T03:27:25;1.50;;;1.17;;
19257;SDS011;9763;48.780;9.212;2023-12-28T03:30:49;1.93;;;1.27;;
19257;SDS011;9763;48.780;9.212;2023-12-28T03:34:15;1.40;;;1.00;;
19257;SDS011;9763;48.780;9.212;2023-12-28T03:37:40;1.30;;;0.90;;
19257;SDS011;9763;48.780;9.212;2023-12-28T03:41:04;1.40;;;0.97;;
19257;SDS011;9763;48.780;9.212;2023-12-28T03:44:28;1.33;;;1.00;;
19257;SDS011;9763;48.780;9.212;2023-12-28T03:47:52;1.30;;;1.07;;
19257;SDS011;9763;48.780;9.212;2023-12-28T03:51:18;4.27;;;1.00;;
19257;SDS011;9763;48.780;9.212;2023-12-28T03:54:42;1.43;;;0.87;;
19257;SDS011;9763;48.780;9.212;2023-12-28T03:58:07;1.47;;;1.20;;
19257;SDS011;9763;48.780;9.212;2023-12-28T04:01:31;1.40;;;1.00;;
19257;SDS011;9763;48.780;9.212;2023-12-28T04:04:56;1.60;;;0.80;;
19257;SDS011;9763;48.780;9.212;2023-12-28T04:08:21;1.23;;;1.00;;
19257;SDS011;9763;48.780;9.212;2023-12-28T04:11:46;1.30;;;1.10;;
19257;SDS011;9763;48.780;9.212;2023-12-28T04:15:10;1.50;;;0.97;;
19257;SDS011;9763;48.780;9.212;2023-12-28T04:18:34;1.60;;;1.33;;
19257;SDS011;9763;48.780;9.212;2023-12-28T04:21:58;1.40;;;0.93;;
19257;SDS011;9763;48.780;9.212;2023-12-28T04:25:26;1.30;;;1.10;;
19257;SDS011;9763;48.780;9.212;2023-12-28T04:28:50;2.37;;;1.00;;
19257;SDS011;9763;48.780;9.212;2023-12-28T04:32:14;1.60;;;1.13;;
19257;SDS011;9763;48.780;9.212;2023-12-28T04:35:38;1.30;;;0.90;;
19257;SDS011;9763;48.780;9.212;2023-12-28T04:39:03;1.40;;;0.93;;
19257;SDS011;9763;48.780;9.212;2023-12-28T04:42:28;1.23;;;1.00;;
19257;SDS011;9763;48.780;9.212;2023-12-28T04:45:52;1.77;;;1.20;;
19257;SDS011;9763;48.780;9.212;2023-12-28T04:49:17;2.07;;;1.10;;
19257;SDS011;9763;48.780;9.212;2023-12-28T04:52:42;1.40;;;1.03;;
19257;SDS011;9763;48.780;9.212;2023-12-28T04:56:07;1.60;;;1.00;;
19257;SDS011;9763;48.780;9.212;2023-12-28T04:59:32;1.60;;;0.90;;
19257;SDS011;9763;48.780;9.212;2023-12-28T05:02:56;1.30;;;1.10;;
19257;SDS011;9763;48.780;9.212;2023-12-28T05:06:20;1.50;;;1.00;;
19257;SDS011;9763;48.780;9.212;2023-12-28T05:09:44;1.30;;;0.90;;
19257;SDS011;9763;48.780;9.212;2023-12-28T05:13:08;1.30;;;1.03;;
19257;SDS011;9763;48.780;9.212;2023-12-28T05:16:34;2.13;;;0.90;;
19257;SDS011;9763;48.780;9.212;2023-12-28T05:19:58;1.50;;;1.00;;
19257;SDS011;9763;48.780;9.212;2023-12-28T05:23:24;1.77;;;1.10;;
19257;SDS011;9763;48.780;9.212;2023-12-28T05:26:48;1.20;;;0.90;;
19257;SDS011;9763;48.780;9.212;2023-12-28T05:30:12;1.40;;;0.90;;
19257;SDS011;9763;48.780;9.212;2023-12-28T05:33:37;1.20;;;0.80;;
19257;SDS011;9763;48.780;9.212;2023-12-28T05:37:01;1.20;;;0.80;;
19257;SDS011;9763;48.780;9.212;2023-12-28T05:40:25;1.20;;;0.90;;
19257;SDS011;9763;48.780;9.212;2023-12-28T05:43:50;1.20;;;0.77;;
19257;SDS011;9763;48.780;9.212;2023-12-28T05:47:13;1.30;;;0.97;;
19257;SDS011;9763;48.780;9.212;2023-12-28T05:50:39;1.30;;;0.97;;
19257;SDS011;9763;48.780;9.212;2023-12-28T05:54:03;1.20;;;0.70;;
19257;SDS011;9763;48.780;9.212;2023-12-28T05:57:30;1.37;;;0.80;;
19257;SDS011;9763;48.780;9.212;2023-12-28T06:00:54;1.40;;;0.90;;
19257;SDS011;9763;48.780;9.212;2023-12-28T06:04:18;1.20;;;0.70;;
19257;SDS011;9763;48.780;9.212;2023-12-28T06:07:43;1.30;;;0.80;;
19257;SDS011;9763;48.780;9.212;2023-12-28T06:11:07;1.20;;;0.70;;
19257;SDS011;9763;48.780;9.212;2023-12-28T06:14:33;1.30;;;0.80;;
19257;SDS011;9763;48.780;9.212;2023-12-28T06:18:01;1.60;;;0.87;;
19257;SDS011;9763;48.780;9.212;2023-12-28T06:21:26;1.70;;;1.00;;
19257;SDS011;9763;48.780;9.212;2023-12-28T06:24:54;1.60;;;1.00;;
19257;SDS011;9763;48.780;9.212;2023-12-28T06:28:19;1.30;;;1.00;;
19257;SDS011;9763;48.780;9.212;2023-12-28T06:31:43;1.50;;;1.10;;
19257;SDS011;9763;48.780;9.212;2023-12-28T06:35:07;2.53;;;1.00;;
19257;SDS011;9763;48.780;9.212;2023-12-28T06:38:31;1.40;;;0.97;;
19257;SDS011;9763;48.780;9.212;2023-12-28T06:41:57;1.20;;;0.80;;
19257;SDS011;9763;48.780;9.212;2023-12-28T06:45:21;1.47;;;1.00;;
19257;SDS011;9763;48.780;9.212;2023-12-28T06:48:50;1.60;;;0.90;;
19257;SDS011;9763;48.780;9.212;2023-12-28T06:52:14;1.73;;;1.13;;
19257;SDS011;9763;48.780;9.212;2023-12-28T06:55:39;1.30;;;0.80;;
19257;SDS011;9763;48.780;9.212;2023-12-28T06:59:04;1.30;;;1.00;;
19257;SDS011;9763;48.780;9.212;2023-12-28T07:02:28;1.17;;;0.83;;
19257;SDS011;9763;48.780;9.212;2023-12-28T07:05:52;1.27;;;0.67;;
19257;SDS011;9763;48.780;9.212;2023-12-28T07:09:16;1.27;;;0.90;;
19257;SDS011;9763;48.780;9.212;2023-12-28T07:12:40;1.20;;;0.80;;
19257;SDS011;9763;48.780;9.212;2023-12-28T07:16:06;1.20;;;0.70;;
19257;SDS011;9763;48.780;9.212;2023-12-28T07:19:30;1.58;;;0.80;;
19257;SDS011;9763;48.780;9.212;2023-12-28T07:22:54;2.57;;;1.40;;
19257;SDS011;9763;48.780;9.212;2023-12-28T07:26:18;1.97;;;1.13;;
19257;SDS011;9763;48.780;9.212;2023-12-28T07:29:42;1.70;;;1.27;;
19257;SDS011;9763;48.780;9.212;2023-12-28T07:33:08;2.20;;;1.13;;
19257;SDS011;9763;48.780;9.212;2023-12-28T07:36:32;1.30;;;0.83;;
19257;SDS011;9763;48.780;9.212;2023-12-28T07:39:55;1.70;;;0.80;;
19257;SDS011;9763;48.780;9.212;2023-12-28T07:43:20;1.20;;;0.80;;
19257;SDS011;9763;48.780;9.212;2023-12-28T07:46:43;1.50;;;0.90;;
19257;SDS011;9763;48.780;9.212;2023-12-28T07:50:09;1.50;;;1.00;;
19257;SDS011;9763;48.780;9.212;2023-12-28T07:53:33;2.37;;;1.20;;
19257;SDS011;9763;48.780;9.212;2023-12-28T07:56:57;2.20;;;1.60;;
19257;SDS011;9763;48.780;9.212;2023-12-28T08:00:21;3.07;;;1.90;;
19257;SDS011;9763;48.780;9.212;2023-12-28T08:03:45;2.55;;;2.00;;
19257;SDS011;9763;48.780;9.212;2023-12-28T08:07:10;3.23;;;1.93;;
19257;SDS011;9763;48.780;9.212;2023-12-28T08:10:35;2.10;;;1.80;;
19257;SDS011;9763;48.780;9.212;2023-12-28T08:13:59;2.73;;;2.00;;
19257;SDS011;9763;48.780;9.212;2023-12-28T08:17:23;2.40;;;1.80;;
19257;SDS011;9763;48.780;9.212;2023-12-28T08:20:47;2.00;;;1.80;;
19257;SDS011;9763;48.780;9.212;2023-12-28T08:24:13;1.70;;;1.50;;
19257;SDS011;9763;48.780;9.212;2023-12-28T08:27:38;3.27;;;1.60;;
19257;SDS011;9763;48.780;9.212;2023-12-28T08:31:03;3.10;;;1.63;;
19257;SDS011;9763;48.780;9.212;2023-12-28T08:34:29;1.70;;;1.40;;
19257;SDS011;9763;48.780;9.212;2023-12-28T08:37:54;1.53;;;1.37;;
19257;SDS011;9763;48.780;9.212;2023-12-28T08:41:19;1.70;;;1.10;;
19257;SDS011;9763;48.780;9.212;2023-12-28T08:44:45;2.07;;;1.20;;
19257;SDS011;9763;48.780;9.212;2023-12-28T08:48:10;2.07;;;1.40;;
19257;SDS011;9763;48.780;9.212;2023-12-28T08:51:35;1.83;;;1.38;;
19257;SDS011;9763;48.780;9.212;2023-12-28T08:55:04;1.50;;;1.10;;
19257;SDS011;9763;48.780;9.212;2023-12-28T08:58:30;1.67;;;1.33;;
19257;SDS011;9763;48.780;9.212;2023-12-28T09:01:54;2.63;;;1.13;;
19257;SDS011;9763;48.780;9.212;2023-12-28T09:05:18;1.90;;;1.27;;
19257;SDS011;9763;48.780;9.212;2023-12-28T09:08:41;1.40;;;1.20;;
19257;SDS011;9763;48.780;9.212;2023-12-28T09:12:06;2.10;;;1.40;;
19257;SDS011;9763;48.780;9.212;2023-12-28T09:15:31;2.13;;;1.30;;
19257;SDS011;9763;48.780;9.212;2023-12-28T09:18:55;1.87;;;1.40;;
19257;SDS011;9763;48.780;9.212;2023-12-28T09:22:19;1.67;;;1.50;;
19257;SDS011;9763;48.780;9.212;2023-12-28T09:25:43;2.57;;;1.63;;
19257;SDS011;9763;48.780;9.212;2023-12-28T09:29:07;2.33;;;1.60;;
19257;SDS011;9763;48.780;9.212;2023-12-28T09:32:32;2.27;;;1.57;;
19257;SDS011;9763;48.780;9.212;2023-12-28T09:35:55;3.20;;;1.60;;
19257;SDS011;9763;48.780;9.212;2023-12-28T09:39:19;2.30;;;1.97;;
19257;SDS011;9763;48.780;9.212;2023-12-28T09:42:47;2.23;;;1.63;;
19257;SDS011;9763;48.780;9.212;2023-12-28T09:46:19;2.13;;;1.87;;
19257;SDS011;9763;48.780;9.212;2023-12-28T09:49:45;3.83;;;2.10;;
19257;SDS011;9763;48.780;9.212;2023-12-28T09:53:10;2.87;;;2.27;;
19257;SDS011;9763;48.780;9.212;2023-12-28T09:56:34;2.13;;;1.43;;
19257;SDS011;9763;48.780;9.212;2023-12-28T10:00:00;2.23;;;1.80;;
19257;SDS011;9763;48.780;9.212;2023-12-28T10:03:32;1.90;;;1.43;;
19257;SDS011;9763;48.780;9.212;2023-12-28T10:06:58;2.00;;;1.77;;
19257;SDS011;9763;48.780;9.212;2023-12-28T10:10:22;2.90;;;2.20;;
19257;SDS011;9763;48.780;9.212;2023-12-28T10:13:46;2.43;;;1.50;;
19257;SDS011;9763;48.780;9.212;2023-12-28T10:17:11;1.97;;;1.50;;
19257;SDS011;9763;48.780;9.212;2023-12-28T10:20:36;1.90;;;1.47;;
19257;SDS011;9763;48.780;9.212;2023-12-28T10:24:02;4.13;;;1.60;;
19257;SDS011;9763;48.780;9.212;2023-12-28T10:27:26;1.70;;;1.20;;
19257;SDS011;9763;48.780;9.212;2023-12-28T10:30:53;1.30;;;0.80;;
19257;SDS011;9763;48.780;9.212;2023-12-28T10:34:19;2.17;;;1.20;;
19257;SDS011;9763;48.780;9.212;2023-12-28T10:37:43;1.30;;;1.00;;
19257;SDS011;9763;48.780;9.212;2023-12-28T10:41:08;1.50;;;1.00;;
19257;SDS011;9763;48.780;9.212;2023-12-28T10:44:33;2.10;;;1.30;;
19257;SDS011;9763;48.780;9.212;2023-12-28T10:48:04;1.60;;;1.10;;
19257;SDS011;9763;48.780;9.212;2023-12-28T10:51:30;2.20;;;1.07;;
19257;SDS011;9763;48.780;9.212;2023-12-28T10:55:14;1.40;;;1.17;;
19257;SDS011;9763;48.780;9.212;2023-12-28T10:58:51;1.30;;;1.00;;
19257;SDS011;9763;48.780;9.212;2023-12-28T11:02:23;1.20;;;0.80;;
19257;SDS011;9763;48.780;9.212;2023-12-28T11:05:57;1.40;;;1.00;;
19257;SDS011;9763;48.780;9.212;2023-12-28T11:09:22;1.57;;;1.10;;
19257;SDS011;9763;48.780;9.212;2023-12-28T11:12:49;1.30;;;0.97;;
19257;SDS011;9763;48.780;9.212;2023-12-28T11:16:17;2.47;;;1.00;;
19257;SDS011;9763;48.780;9.212;2023-12-28T11:19:42;1.30;;;0.80;;
19257;SDS011;9763;48.780;9.212;2023-12-28T11:23:07;1.97;;;0.83;;
19257;SDS011;9763;48.780;9.212;2023-12-28T11:26:32;1.27;;;0.83;;
19257;SDS011;9763;48.780;9.212;2023-12-28T11:29:57;2.00;;;1.10;;
19257;SDS011;9763;48.780;9.212;2023-12-28T11:33:22;1.30;;;0.80;;
19257;SDS011;9763;48.780;9.212;2023-12-28T11:36:48;1.60;;;1.07;;
19257;SDS011;9763;48.780;9.212;2023-12-28T11:40:17;1.20;;;0.80;;
19257;SDS011;9763;48.780;9.212;2023-12-28T11:43:42;1.47;;;0.90;;
19257;SDS011;9763;48.780;9.212;2023-12-28T11:47:14;1.37;;;0.80;;
19257;SDS011;9763;48.780;9.212;2023-12-28T11:50:40;1.30;;;0.90;;
19257;SDS011;9763;48.780;9.212;2023-12-28T11:54:04;1.70;;;1.00;;
19257;SDS011;9763;48.780;9.212;2023-12-28T11:57:29;2.00;;;1.10;;
19257;SDS011;9763;48.780;9.212;2023-12-28T12:00:53;1.40;;;0.90;;
19257;SDS011;9763;48.780;9.212;2023-12-28T12:04:17;1.50;;;1.10;;
19257;SDS011;9763;48.780;9.212;2023-12-28T12:07:44;1.30;;;1.00;;
19257;SDS011;9763;48.780;9.212;2023-12-28T12:11:08;1.60;;;1.03;;
19257;SDS011;9763;48.780;9.212;2023-12-28T12:14:32;1.50;;;1.07;;
19257;SDS011;9763;48.780;9.212;2023-12-28T12:17:58;1.40;;;1.00;;
19257;SDS011;9763;48.780;9.212;2023-12-28T12:21:23;1.30;;;1.00;;
19257;SDS011;9763;48.780;9.212;2023-12-28T12:24:48;1.23;;;0.90;;
19257;SDS011;9763;48.780;9.212;2023-12-28T12:28:14;1.77;;;1.10;;
19257;SDS011;9763;48.780;9.212;2023-12-28T12:31:38;1.47;;;1.07;;
19257;SDS011;9763;48.780;9.212;2023-12-28T12:35:04;1.23;;;0.80;;
19257;SDS011;9763;48.780;9.212;2023-12-28T12:38:29;1.30;;;0.87;;
19257;SDS011;9763;48.780;9.212;2023-12-28T12:41:55;1.40;;;0.90;;
19257;SDS011;9763;48.780;9.212;2023-12-28T12:45:19;1.30;;;1.00;;
19257;SDS011;9763;48.780;9.212;2023-12-28T12:48:53;1.30;;;0.90;;
19257;SDS011;9763;48.780;9.212;2023-12-28T12:52:19;1.27;;;0.97;;
19257;SDS011;9763;48.780;9.212;2023-12-28T12:55:45;1.30;;;0.90;;
19257;SDS011;9763;48.780;9.212;2023-12-28T12:59:11;1.50;;;1.10;;
19257;SDS011;9763;48.780;9.212;2023-12-28T13:02:38;1.37;;;1.00;;
19257;SDS011;9763;48.780;9.212;2023-12-28T13:06:02;1.20;;;0.77;;
19257;SDS011;9763;48.780;9.212;2023-12-28T13:09:26;1.23;;;0.87;;
19257;SDS011;9763;48.780;9.212;2023-12-28T13:12:50;1.40;;;0.90;;
19257;SDS011;9763;48.780;9.212;2023-12-28T13:16:16;1.50;;;0.90;;
19257;SDS011;9763;48.780;9.212;2023-12-28T13:19:40;2.03;;;1.00;;
19257;SDS011;9763;48.780;9.212;2023-12-28T13:23:05;1.30;;;0.90;;
19257;SDS011;9763;48.780;9.212;2023-12-28T13:26:29;1.50;;;1.00;;
19257;SDS011;9763;48.780;9.212;2023-12-28T13:29:53;1.50;;;1.00;;
19257;SDS011;9763;48.780;9.212;2023-12-28T13:33:18;1.47;;;1.00;;
19257;SDS011;9763;48.780;9.212;2023-12-28T13:36:43;1.20;;;0.77;;
19257;SDS011;9763;48.780;9.212;2023-12-28T13:40:07;1.40;;;0.93;;
19257;SDS011;9763;48.780;9.212;2023-12-28T13:43:32;1.43;;;0.80;;
19257;SDS011;9763;48.780;9.212;2023-12-28T13:46:57;1.30;;;0.87;;
19257;SDS011;9763;48.780;9.212;2023-12-28T13:50:23;1.30;;;0.83;;
19257;SDS011;9763;48.780;9.212;2023-12-28T13:53:47;1.60;;;0.90;;
19257;SDS011;9763;48.780;9.212;2023-12-28T13:57:11;1.53;;;1.10;;
19257;SDS011;9763;48.780;9.212;2023-12-28T14:00:35;1.40;;;0.90;;
19257;SDS011;9763;48.780;9.212;2023-12-28T14:03:59;1.50;;;0.80;;
19257;SDS011;9763;48.780;9.212;2023-12-28T14:07:26;2.53;;;1.13;;
19257;SDS011;9763;48.780;9.212;2023-12-28T14:10:50;1.63;;;1.10;;
19257;SDS011;9763;48.780;9.212;2023-12-28T14:14:14;2.13;;;0.90;;
19257;SDS011;9763;48.780;9.212;2023-12-28T14:17:38;1.37;;;1.00;;
19257;SDS011;9763;48.780;9.212;2023-12-28T14:21:02;1.30;;;1.00;;
19257;SDS011;9763;48.780;9.212;2023-12-28T14:24:30;3.20;;;1.67;;
19257;SDS011;9763;48.780;9.212;2023-12-28T14:27:55;1.60;;;1.10;;
19257;SDS011;9763;48.780;9.212;2023-12-28T14:31:19;1.90;;;1.20;;
19257;SDS011;9763;48.780;9.212;2023-12-28T14:34:44;1.80;;;1.10;;
19257;SDS011;9763;48.780;9.212;2023-12-28T14:38:08;1.30;;;1.00;;
19257;SDS011;9763;48.780;9.212;2023-12-28T14:41:34;1.63;;;1.00;;
19257;SDS011;9763;48.780;9.212;2023-12-28T14:45:04;1.40;;;1.00;;
19257;SDS011;9763;48.780;9.212;2023-12-28T14:48:29;1.60;;;1.10;;
19257;SDS011;9763;48.780;9.212;2023-12-28T14:51:54;2.13;;;1.10;;
19257;SDS011;9763;48.780;9.212;2023-12-28T14:55:18;1.30;;;0.93;;
19257;SDS011;9763;48.780;9.212;2023-12-28T14:58:45;1.20;;;0.90;;
19257;SDS011;9763;48.780;9.212;2023-12-28T15:02:10;1.57;;;0.80;;
19257;SDS011;9763;48.780;9.212;2023-12-28T15:05:33;1.67;;;1.37;;
19257;SDS011;9763;48.780;9.212;2023-12-28T15:08:57;1.50;;;0.90;;
19257;SDS011;9763;48.780;9.212;2023-12-28T15:12:21;1.37;;;1.03;;
19257;SDS011;9763;48.780;9.212;2023-12-28T15:15:47;3.30;;;1.23;;
19257;SDS011;9763;48.780;9.212;2023-12-28T15:19:13;1.37;;;0.90;;
19257;SDS011;9763;48.780;9.212;2023-12-28T15:22:37;1.30;;;0.90;;
19257;SDS011;9763;48.780;9.212;2023-12-28T15:26:02;1.30;;;0.93;;
19257;SDS011;9763;48.780;9.212;2023-12-28T15:29:28;1.30;;;1.03;;
19257;SDS011;9763;48.780;9.212;2023-12-28T15:32:53;1.60;;;0.93;;
19257;SDS011;9763;48.780;9.212;2023-12-28T15:36:16;1.40;;;1.13;;
19257;SDS011;9763;48.780;9.212;2023-12-28T15:39:40;1.30;;;0.90;;
19257;SDS011;9763;48.780;9.212;2023-12-28T15:43:04;1.30;;;0.80;;
19257;SDS011;9763;48.780;9.212;2023-12-28T15:46:28;1.40;;;1.03;;
19257;SDS011;9763;48.780;9.212;2023-12-28T15:49:53;2.50;;;1.10;;
19257;SDS011;9763;48.780;9.212;2023-12-28T15:53:17;2.57;;;1.10;;
19257;SDS011;9763;48.780;9.212;2023-12-28T15:56:41;1.27;;;0.90;;
19257;SDS011;9763;48.780;9.212;2023-12-28T16:00:06;1.33;;;1.00;;
19257;SDS011;9763;48.780;9.212;2023-12-28T16:03:34;1.50;;;1.00;;
19257;SDS011;9763;48.780;9.212;2023-12-28T16:07:00;1.93;;;1.00;;
19257;SDS011;9763;48.780;9.212;2023-12-28T16:10:24;1.60;;;0.90;;
19257;SDS011;9763;48.780;9.212;2023-12-28T16:13:50;1.40;;;1.00;;
19257;SDS011;9763;48.780;9.212;2023-12-28T16:17:15;1.30;;;1.10;;
19257;SDS011;9763;48.780;9.212;2023-12-28T16:20:39;1.40;;;1.10;;
19257;SDS011;9763;48.780;9.212;2023-12-28T16:24:06;1.50;;;1.30;;
19257;SDS011;9763;48.780;9.212;2023-12-28T16:27:30;1.40;;;1.10;;
19257;SDS011;9763;48.780;9.212;2023-12-28T16:30:54;1.50;;;1.30;;
19257;SDS011;9763;48.780;9.212;2023-12-28T16:34:19;1.93;;;1.10;;
19257;SDS011;9763;48.780;9.212;2023-12-28T16:37:43;2.43;;;1.10;;
19257;SDS011;9763;48.780;9.212;2023-12-28T16:41:08;1.40;;;0.97;;
19257;SDS011;9763;48.780;9.212;2023-12-28T16:44:32;1.43;;;1.17;;
19257;SDS011;9763;48.780;9.212;2023-12-28T16:47:56;1.50;;;1.10;;
19257;SDS011;9763;48.780;9.212;2023-12-28T16:51:20;1.73;;;1.10;;
19257;SDS011;9763;48.780;9.212;2023-12-28T16:54:44;1.20;;;1.00;;
19257;SDS011;9763;48.780;9.212;2023-12-28T16:58:09;1.30;;;1.03;;
19257;SDS011;9763;48.780;9.212;2023-12-28T17:01:34;1.40;;;0.90;;
19257;SDS011;9763;48.780;9.212;2023-12-28T17:04:57;1.50;;;1.10;;
19257;SDS011;9763;48.780;9.212;2023-12-28T17:08:22;1.50;;;1.00;;
19257;SDS011;9763;48.780;9.212;2023-12-28T17:11:46;1.40;;;1.00;;
19257;SDS011;9763;48.780;9.212;2023-12-28T17:15:20;1.40;;;1.10;;
19257;SDS011;9763;48.780;9.212;2023-12-28T17:18:45;1.50;;;1.20;;
19257;SDS011;9763;48.780;9.212;2023-12-28T17:22:09;1.20;;;0.85;;
19257;SDS011;9763;48.780;9.212;2023-12-28T17:25:39;1.40;;;1.20;;
19257;SDS011;9763;48.780;9.212;2023-12-28T17:29:12;1.67;;;1.00;;
19257;SDS011;9763;48.780;9.212;2023-12-28T17:32:38;1.20;;;0.90;;
19257;SDS011;9763;48.780;9.212;2023-12-28T17:36:04;1.20;;;0.80;;
19257;SDS011;9763;48.780;9.212;2023-12-28T17:39:30;1.30;;;0.90;;
19257;SDS011;9763;48.780;9.212;2023-12-28T17:42:58;1.80;;;0.87;;
19257;SDS011;9763;48.780;9.212;2023-12-28T17:46:29;1.60;;;1.10;;
19257;SDS011;9763;48.780;9.212;2023-12-28T17:50:10;2.27;;;1.00;;
19257;SDS011;9763;48.780;9.212;2023-12-28T17:53:38;1.40;;;0.93;;
19257;SDS011;9763;48.780;9.212;2023-12-28T17:57:02;1.37;;;1.00;;
19257;SDS011;9763;48.780;9.212;2023-12-28T18:00:26;1.30;;;0.93;;
19257;SDS011;9763;48.780;9.212;2023-12-28T18:03:50;1.20;;;0.90;;
19257;SDS011;9763;48.780;9.212;2023-12-28T18:07:16;1.50;;;1.10;;
19257;SDS011;9763;48.780;9.212;2023-12-28T18:10:40;1.40;;;1.10;;
19257;SDS011;9763;48.780;9.212;2023-12-28T18:14:04;1.60;;;1.27;;
19257;SDS011;9763;48.780;9.212;2023-12-28T18:17:28;1.40;;;1.20;;
19257;SDS011;9763;48.780;9.212;2023-12-28T18:20:52;1.33;;;1.00;;
19257;SDS011;9763;48.780;9.212;2023-12-28T18:24:17;1.40;;;1.13;;
19257;SDS011;9763;48.780;9.212;2023-12-28T18:27:41;1.43;;;1.20;;
19257;SDS011;9763;48.780;9.212;2023-12-28T18:31:05;1.47;;;1.23;;
19257;SDS011;9763;48.780;9.212;2023-12-28T18:34:29;1.27;;;1.10;;
19257;SDS011;9763;48.780;9.212;2023-12-28T18:37:53;1.93;;;1.27;;
19257;SDS011;9763;48.780;9.212;2023-12-28T18:41:19;1.50;;;1.17;;
19257;SDS011;9763;48.780;9.212;2023-12-28T18:44:43;2.63;;;1.40;;
19257;SDS011;9763;48.780;9.212;2023-12-28T18:48:07;1.40;;;0.93;;
19257;SDS011;9763;48.780;9.212;2023-12-28T18:51:34;1.57;;;1.00;;
19257;SDS011;9763;48.780;9.212;2023-12-28T18:54:58;1.30;;;0.97;;
19257;SDS011;9763;48.780;9.212;2023-12-28T18:58:24;1.40;;;1.00;;
19257;SDS011;9763;48.780;9.212;2023-12-28T19:01:48;1.50;;;1.00;;
19257;SDS011;9763;48.780;9.212;2023-12-28T19:05:15;1.83;;;1.40;;
19257;SDS011;9763;48.780;9.212;2023-12-28T19:08:40;1.87;;;1.10;;
19257;SDS011;9763;48.780;9.212;2023-12-28T19:12:06;1.40;;;1.00;;
19257;SDS011;9763;48.780;9.212;2023-12-28T19:15:34;2.33;;;0.87;;
19257;SDS011;9763;48.780;9.212;2023-12-28T19:18:58;1.43;;;1.10;;
19257;SDS011;9763;48.780;9.212;2023-12-28T19:22:22;1.97;;;1.33;;
19257;SDS011;9763;48.780;9.212;2023-12-28T19:25:47;1.83;;;1.00;;
19257;SDS011;9763;48.780;9.212;2023-12-28T19:29:11;2.07;;;1.10;;
19257;SDS011;9763;48.780;9.212;2023-12-28T19:32:40;1.60;;;1.00;;
19257;SDS011;9763;48.780;9.212;2023-12-28T19:36:04;1.50;;;1.00;;
19257;SDS011;9763;48.780;9.212;2023-12-28T19:39:28;1.50;;;1.10;;
19257;SDS011;9763;48.780;9.212;2023-12-28T19:42:52;2.00;;;1.20;;
19257;SDS011;9763;48.780;9.212;2023-12-28T19:46:16;1.70;;;1.20;;
19257;SDS011;9763;48.780;9.212;2023-12-28T19:49:42;1.47;;;1.00;;
19257;SDS011;9763;48.780;9.212;2023-12-28T19:53:05;1.40;;;1.07;;
19257;SDS011;9763;48.780;9.212;2023-12-28T19:56:35;1.50;;;1.07;;
19257;SDS011;9763;48.780;9.212;2023-12-28T20:00:00;1.40;;;1.00;;
19257;SDS011;9763;48.780;9.212;2023-12-28T20:03:25;1.50;;;0.90;;
19257;SDS011;9763;48.780;9.212;2023-12-28T20:06:51;1.50;;;1.17;;
19257;SDS011;9763;48.780;9.212;2023-12-28T20:10:15;1.30;;;1.07;;
19257;SDS011;9763;48.780;9.212;2023-12-28T20:13:40;1.43;;;1.20;;
19257;SDS011;9763;48.780;9.212;2023-12-28T20:17:03;1.47;;;1.23;;
19257;SDS011;9763;48.780;9.212;2023-12-28T20:20:28;1.40;;;1.00;;
19257;SDS011;9763;48.780;9.212;2023-12-28T20:23:54;1.50;;;1.20;;
19257;SDS011;9763;48.780;9.212;2023-12-28T20:27:17;1.37;;;1.10;;
19257;SDS011;9763;48.780;9.212;2023-12-28T20:30:41;1.27;;;0.90;;
19257;SDS011;9763;48.780;9.212;2023-12-28T20:34:06;1.20;;;0.90;;
19257;SDS011;9763;48.780;9.212;2023-12-28T20:37:30;1.30;;;0.90;;
19257;SDS011;9763;48.780;9.212;2023-12-28T20:40:56;1.50;;;1.03;;
19257;SDS011;9763;48.780;9.212;2023-12-28T20:44:20;1.43;;;0.93;;
19257;SDS011;9763;48.780;9.212;2023-12-28T20:47:46;1.43;;;1.07;;
19257;SDS011;9763;48.780;9.212;2023-12-28T20:51:10;1.40;;;1.03;;
19257;SDS011;9763;48.780;9.212;2023-12-28T20:54:36;1.30;;;0.90;;